Time;durP1;ratioP1;P1;durP2;ratioP2;P2;SDS_P1;SDS_P2;PMS_P1;PMS_P2;Temp;Humidity;BMP_temperature;BMP_pressure;BME280_temperature;BME280_humidity;BME280_pressure;Samples;Min_cycle;Max_cycle;Signal;HPM_P1;HPM_P2
2022/07/27 00:01:20;;;;;;;;;3.00;3.00;;;;;22.57;51.52;100687.95;111272;1258;19794;-80
2022/07/27 00:03:48;;;;;;;;;3.00;3.00;;;;;22.58;51.54;100687.84;111224;1257;20272;-80
2022/07/27 00:06:15;;;;;;;;;3.67;3.67;;;;;22.53;51.67;100692.14;111317;1258;19217;-79
2022/07/27 00:08:42;;;;;;;;;3.00;3.00;;;;;22.54;51.55;100694.36;111335;1257;19815;-80
2022/07/27 00:11:10;;;;;;;;;3.00;3.00;;;;;22.48;51.78;100699.52;111289;1258;21141;-78
2022/07/27 00:13:37;;;;;;;;;2.67;2.67;;;;;22.45;51.88;100698.57;111304;1257;19875;-80
2022/07/27 00:16:05;;;;;;;;;5.00;3.00;;;;;22.45;51.90;100704.98;111324;1257;19552;-81
2022/07/27 00:18:32;;;;;;;;;3.00;3.00;;;;;22.41;51.88;100702.52;111433;1257;21733;-80
2022/07/27 00:20:59;;;;;;;;;3.00;3.00;;;;;22.43;51.88;100706.80;111337;1258;19222;-81
2022/07/27 00:23:26;;;;;;;;;5.00;3.00;;;;;22.40;52.01;100706.30;111254;1257;19430;-80
2022/07/27 00:25:54;;;;;;;;;5.33;5.00;;;;;22.40;51.94;100709.61;111286;1258;20240;-79
2022/07/27 00:28:21;;;;;;;;;3.00;3.00;;;;;22.33;52.12;100707.92;111312;1257;19167;-81
2022/07/27 00:30:48;;;;;;;;;2.67;2.67;;;;;22.34;52.06;100710.16;111381;1257;24010;-81
2022/07/27 00:33:16;;;;;;;;;5.00;5.00;;;;;22.34;52.12;100709.99;111507;1258;21840;-80
2022/07/27 00:35:43;;;;;;;;;5.00;5.00;;;;;22.30;52.09;100706.08;112018;1257;19439;-80
2022/07/27 00:38:10;;;;;;;;;3.67;3.67;;;;;22.27;52.22;100709.52;111342;1257;21123;-80
2022/07/27 00:40:38;;;;;;;;;5.00;5.00;;;;;22.22;52.38;100713.98;111365;1257;21723;-79
2022/07/27 00:43:05;;;;;;;;;5.00;5.00;;;;;22.19;52.58;100711.84;111324;1258;19539;-79
2022/07/27 00:45:32;;;;;;;;;3.67;3.00;;;;;22.22;52.47;100716.08;111375;1258;23710;-79
2022/07/27 00:48:00;;;;;;;;;3.00;3.00;;;;;22.20;52.42;100726.77;111332;1257;20461;-79
2022/07/27 00:50:27;;;;;;;;;5.00;5.00;;;;;22.22;52.46;100730.23;111282;1257;23514;-79
2022/07/27 00:52:54;;;;;;;;;5.00;5.00;;;;;22.22;52.43;100727.66;111284;1258;19531;-79
2022/07/27 00:55:21;;;;;;;;;5.00;5.00;;;;;22.27;52.39;100731.02;111318;1258;21818;-80
2022/07/27 01:00:52;;;;;;;;;5.00;5.00;;;;;22.18;52.30;100735.09;110408;1257;25145;-61
2022/07/27 01:03:19;;;;;;;;;6.00;4.00;;;;;22.07;52.58;100736.36;110777;1258;21774;-62
2022/07/27 01:05:47;;;;;;;;;4.67;3.67;;;;;22.03;52.69;100731.51;110771;1258;19271;-60
2022/07/27 01:08:14;;;;;;;;;4.33;4.33;;;;;21.98;52.84;100729.14;110728;1258;19470;-61
2022/07/27 01:10:41;;;;;;;;;5.00;5.00;;;;;21.95;53.07;100727.29;110707;1257;20537;-60
2022/07/27 01:13:09;;;;;;;;;4.67;4.67;;;;;22.01;53.12;100731.73;110781;1258;19330;-61
2022/07/27 01:15:36;;;;;;;;;5.00;5.00;;;;;21.96;53.43;100730.45;110760;1258;20053;-62
2022/07/27 01:18:04;;;;;;;;;4.00;3.00;;;;;21.94;53.64;100728.42;110756;1258;23106;-60
2022/07/27 01:20:32;;;;;;;;;8.33;6.33;;;;;21.87;54.02;100728.96;110817;1258;19296;-59
2022/07/27 01:22:59;;;;;;;;;5.67;5.67;;;;;21.92;53.88;100728.30;110750;1258;19616;-59
2022/07/27 01:25:27;;;;;;;;;3.00;3.00;;;;;21.95;53.61;100729.10;110724;1258;22487;-60
2022/07/27 01:27:54;;;;;;;;;4.33;4.33;;;;;21.92;53.77;100732.91;110723;1257;19900;-61
2022/07/27 01:30:29;;;;;;;;;5.67;5.67;;;;;21.91;53.86;100739.73;110643;1258;19816;-62
2022/07/27 01:32:56;;;;;;;;;5.33;5.00;;;;;21.82;53.92;100734.84;110812;1258;21183;-60
2022/07/27 01:35:24;;;;;;;;;6.67;6.67;;;;;21.77;53.99;100738.16;110823;1258;19647;-60
2022/07/27 01:37:51;;;;;;;;;6.00;6.00;;;;;21.84;54.03;100733.66;110630;1258;19505;-65
2022/07/27 01:40:18;;;;;;;;;6.00;6.00;;;;;21.82;53.98;100729.92;110784;1258;20429;-59
2022/07/27 01:42:46;;;;;;;;;6.00;6.00;;;;;21.85;53.94;100722.40;110766;1258;23562;-61
2022/07/27 01:45:13;;;;;;;;;6.00;6.00;;;;;21.84;53.98;100725.17;110781;1258;19683;-61
2022/07/27 01:47:41;;;;;;;;;6.67;5.67;;;;;21.79;54.07;100721.20;110793;1258;20877;-62
2022/07/27 01:50:08;;;;;;;;;6.00;5.00;;;;;21.80;54.01;100723.94;110767;1258;19273;-61
2022/07/27 01:52:38;;;;;;;;;5.00;5.00;;;;;21.77;54.19;100725.02;110709;1258;20203;-57
2022/07/27 01:55:05;;;;;;;;;6.00;6.00;;;;;21.79;54.14;100729.01;110765;1258;23607;-61
2022/07/27 01:57:32;;;;;;;;;5.00;5.00;;;;;21.75;54.16;100729.27;110702;1258;23103;-59
2022/07/27 02:00:00;;;;;;;;;6.00;6.00;;;;;21.71;54.42;100730.75;110681;1258;19799;-60
2022/07/27 02:02:27;;;;;;;;;5.33;5.33;;;;;21.78;54.47;100730.99;110710;1257;20347;-61
2022/07/27 02:04:55;;;;;;;;;6.00;6.00;;;;;21.75;54.50;100727.27;110659;1258;19247;-61
2022/07/27 02:07:22;;;;;;;;;6.00;6.00;;;;;21.73;54.55;100731.04;110517;1257;21741;-60
2022/07/27 02:09:50;;;;;;;;;7.00;7.00;;;;;21.71;54.62;100734.50;110685;1258;23646;-59
2022/07/27 02:12:35;;;;;;;;;7.00;6.00;;;;;21.72;54.59;100735.14;110638;1257;19203;-60
2022/07/27 02:15:03;;;;;;;;;5.33;5.33;;;;;21.72;54.78;100736.42;110497;1258;23186;-61
2022/07/27 02:17:31;;;;;;;;;5.67;5.67;;;;;21.69;54.77;100736.80;110731;1258;23051;-59
2022/07/27 02:19:58;;;;;;;;;6.00;6.00;;;;;21.61;54.99;100729.70;110699;1258;19265;-60
2022/07/27 02:22:25;;;;;;;;;5.00;5.00;;;;;21.62;54.81;100730.00;110684;1258;22188;-61
2022/07/27 02:24:53;;;;;;;;;5.00;5.00;;;;;21.67;54.79;100733.73;110561;1258;23196;-60
2022/07/27 02:27:20;;;;;;;;;6.00;6.00;;;;;21.61;54.73;100733.35;110652;1257;19338;-59
2022/07/27 02:29:48;;;;;;;;;6.00;6.00;;;;;21.55;54.86;100734.73;110669;1258;19442;-60
2022/07/27 02:32:15;;;;;;;;;6.67;6.00;;;;;21.66;54.57;100735.45;110717;1258;20231;-60
2022/07/27 02:34:43;;;;;;;;;5.00;5.00;;;;;21.57;54.79;100733.92;110703;1258;19235;-61
2022/07/27 02:37:10;;;;;;;;;5.00;5.00;;;;;21.53;54.89;100731.77;110691;1257;19496;-60
2022/07/27 02:39:37;;;;;;;;;6.00;5.00;;;;;21.50;55.14;100734.52;110668;1258;22764;-59
2022/07/27 02:42:05;;;;;;;;;5.00;5.00;;;;;21.56;54.77;100733.77;110471;1258;19330;-62
2022/07/27 02:44:33;;;;;;;;;6.00;6.00;;;;;21.49;54.99;100728.52;110764;1258;20089;-61
2022/07/27 02:47:00;;;;;;;;;5.00;5.00;;;;;21.49;55.11;100729.19;110664;1257;20367;-62
2022/07/27 02:49:28;;;;;;;;;5.00;5.00;;;;;21.44;54.83;100732.11;110662;1257;19278;-63
2022/07/27 02:51:55;;;;;;;;;5.00;5.00;;;;;21.45;55.00;100735.38;110663;1257;23292;-63
2022/07/27 02:54:23;;;;;;;;;5.00;5.00;;;;;21.55;54.81;100733.16;110630;1257;20389;-60
2022/07/27 02:56:51;;;;;;;;;6.00;6.00;;;;;21.50;54.74;100733.70;110748;1258;19279;-65
2022/07/27 02:59:18;;;;;;;;;6.00;6.00;;;;;21.46;55.01;100732.73;110727;1257;19393;-60
2022/07/27 03:01:46;;;;;;;;;11.00;11.00;;;;;21.49;54.78;100741.06;110693;1258;20384;-60
2022/07/27 03:04:13;;;;;;;;;12.50;12.50;;;;;21.52;54.77;100743.16;110641;1257;19258;-55
2022/07/27 03:06:40;;;;;;;;;13.00;13.00;;;;;21.60;54.52;100748.05;110670;1257;19739;-55
2022/07/27 03:09:08;;;;;;;;;11.33;9.00;;;;;21.59;54.35;100747.78;110672;1257;20338;-58
2022/07/27 03:11:35;;;;;;;;;11.50;11.00;;;;;21.52;54.42;100758.21;110730;1258;19219;-61
2022/07/27 03:14:03;;;;;;;;;13.33;13.00;;;;;21.42;54.56;100758.84;110653;1257;19540;-62
2022/07/27 03:16:30;;;;;;;;;11.33;11.00;;;;;21.39;54.66;100759.08;110662;1257;20374;-61
2022/07/27 03:18:58;;;;;;;;;13.67;12.33;;;;;21.44;54.81;100757.58;110623;1257;22227;-57
2022/07/27 03:21:25;;;;;;;;;13.00;13.00;;;;;21.39;54.96;100754.91;110682;1258;20916;-61
2022/07/27 03:23:52;;;;;;;;;11.00;11.00;;;;;21.31;55.18;100759.59;110492;1258;21103;-59
2022/07/27 03:26:19;;;;;;;;;10.33;10.00;;;;;21.31;55.38;100756.67;110695;1257;22845;-61
2022/07/27 03:28:47;;;;;;;;;14.00;11.00;;;;;21.32;55.33;100753.84;110638;1258;19556;-59
2022/07/27 03:31:14;;;;;;;;;10.67;9.67;;;;;21.37;55.10;100757.35;110635;1257;20427;-60
2022/07/27 03:33:42;;;;;;;;;13.00;11.50;;;;;21.32;55.20;100761.38;110685;1258;19308;-61
2022/07/27 03:36:09;;;;;;;;;15.00;13.00;;;;;21.29;55.16;100761.88;110634;1257;19596;-59
2022/07/27 03:38:37;;;;;;;;;13.67;11.00;;;;;21.31;55.00;100769.55;110724;1258;20325;-60
2022/07/27 03:41:05;;;;;;;;;13.00;10.00;;;;;21.31;54.96;100773.81;110724;1257;20228;-61
2022/07/27 03:43:33;;;;;;;;;9.33;9.33;;;;;21.29;54.95;100769.69;110649;1258;19679;-63
2022/07/27 03:46:00;;;;;;;;;12.00;9.67;;;;;21.25;54.91;100773.83;110646;1258;20214;-60
2022/07/27 03:48:28;;;;;;;;;11.00;7.00;;;;;21.19;54.78;100770.95;110743;1258;19272;-61
2022/07/27 03:50:55;;;;;;;;;8.00;8.00;;;;;21.24;54.91;100766.38;110627;1258;24020;-58
2022/07/27 03:53:22;;;;;;;;;7.33;7.00;;;;;21.24;54.87;100771.92;110704;1257;20501;-59
2022/07/27 03:55:50;;;;;;;;;7.00;6.00;;;;;21.15;54.92;100769.65;110645;1257;23468;-60
2022/07/27 03:58:17;;;;;;;;;6.00;6.00;;;;;21.21;54.73;100774.05;110656;1258;19550;-61
2022/07/27 04:00:45;;;;;;;;;10.00;9.00;;;;;21.24;54.50;100778.23;110660;1258;20394;-61
2022/07/27 04:03:12;;;;;;;;;7.00;7.00;;;;;21.23;54.61;100781.50;110618;1258;19121;-61
2022/07/27 04:05:40;;;;;;;;;6.33;6.33;;;;;21.23;54.48;100779.97;110700;1257;20043;-60
2022/07/27 04:08:07;;;;;;;;;7.00;7.00;;;;;21.24;54.35;100780.45;110686;1257;20336;-58
2022/07/27 04:10:35;;;;;;;;;7.00;7.00;;;;;21.23;54.28;100784.77;110650;1258;19042;-58
2022/07/27 04:13:02;;;;;;;;;5.00;5.00;;;;;21.18;54.43;100785.31;110642;1258;19423;-59
2022/07/27 04:15:30;;;;;;;;;6.50;6.50;;;;;21.18;54.32;100784.59;110641;1258;20347;-60
2022/07/27 04:17:57;;;;;;;;;5.33;5.33;;;;;21.27;54.15;100785.89;110667;1258;19590;-61
2022/07/27 04:20:24;;;;;;;;;7.00;6.00;;;;;21.29;54.20;100784.70;110718;1257;19616;-62
2022/07/27 04:22:52;;;;;;;;;7.00;7.00;;;;;21.33;53.92;100783.75;110669;1258;20263;-59
2022/07/27 04:25:19;;;;;;;;;6.00;6.00;;;;;21.33;53.71;100785.39;110649;1257;19195;-60
2022/07/27 04:27:47;;;;;;;;;6.67;6.00;;;;;21.31;53.79;100783.09;110661;1257;19481;-58
2022/07/27 04:30:14;;;;;;;;;5.33;5.00;;;;;21.35;53.50;100784.08;110656;1257;20368;-60
2022/07/27 04:32:42;;;;;;;;;6.33;6.00;;;;;21.38;53.60;100789.17;110772;1257;19140;-61
2022/07/27 04:35:09;;;;;;;;;6.67;6.33;;;;;21.37;53.34;100789.28;110761;1257;23013;-60
2022/07/27 04:37:37;;;;;;;;;6.00;6.00;;;;;21.27;53.62;100788.09;110669;1258;20332;-60
2022/07/27 04:40:05;;;;;;;;;6.00;6.00;;;;;21.37;53.49;100786.14;110682;1257;19768;-62
2022/07/27 04:42:33;;;;;;;;;6.00;5.67;;;;;21.42;53.26;100786.73;110554;1257;23314;-61
2022/07/27 04:45:01;;;;;;;;;6.00;5.00;;;;;21.43;53.07;100785.26;110704;1257;20496;-61
2022/07/27 04:47:28;;;;;;;;;5.00;5.00;;;;;21.42;53.06;100781.76;110752;1257;19073;-61
2022/07/27 04:49:56;;;;;;;;;5.33;4.00;;;;;21.39;52.97;100780.30;110687;1258;23541;-60
2022/07/27 04:52:23;;;;;;;;;5.00;5.00;;;;;21.41;52.72;100781.19;110724;1258;20883;-59
2022/07/27 04:54:51;;;;;;;;;5.00;5.00;;;;;21.43;52.72;100782.15;110707;1257;23061;-60
2022/07/27 04:57:18;;;;;;;;;6.33;6.00;;;;;21.46;52.56;100780.54;110689;1258;19986;-62
2022/07/27 04:59:45;;;;;;;;;6.00;6.00;;;;;21.46;52.57;100780.53;110758;1257;20182;-58
2022/07/27 05:02:13;;;;;;;;;4.67;4.67;;;;;21.26;52.79;100782.89;110557;1258;19212;-60
2022/07/27 05:04:40;;;;;;;;;5.00;5.00;;;;;21.14;53.21;100781.41;110550;1258;19783;-60
2022/07/27 05:07:07;;;;;;;;;6.00;6.00;;;;;21.11;53.59;100786.13;110683;1258;20474;-60
2022/07/27 05:09:35;;;;;;;;;5.33;5.33;;;;;21.04;53.37;100790.86;110659;1258;22626;-60
2022/07/27 05:12:02;;;;;;;;;5.50;5.00;;;;;21.04;53.51;100785.96;110686;1258;19621;-59
2022/07/27 05:14:30;;;;;;;;;6.67;6.00;;;;;21.14;53.49;100785.55;110770;1257;21628;-61
2022/07/27 05:16:57;;;;;;;;;5.00;5.00;;;;;21.15;53.17;100782.73;110684;1258;19312;-61
2022/07/27 05:19:24;;;;;;;;;4.67;4.33;;;;;21.12;53.39;100785.69;110694;1257;23700;-61
2022/07/27 05:21:52;;;;;;;;;5.00;5.00;;;;;21.13;53.34;100781.38;110652;1257;20277;-60
2022/07/27 05:24:19;;;;;;;;;6.00;5.00;;;;;21.16;53.32;100780.09;110634;1258;19083;-59
2022/07/27 05:26:47;;;;;;;;;5.67;5.00;;;;;21.12;53.21;100787.27;110736;1258;23024;-60
2022/07/27 05:29:14;;;;;;;;;4.00;4.00;;;;;21.22;53.21;100794.12;110721;1257;20405;-61
2022/07/27 05:31:42;;;;;;;;;6.00;6.00;;;;;21.30;53.24;100791.54;110667;1257;19522;-61
2022/07/27 05:34:09;;;;;;;;;7.67;7.00;;;;;21.32;52.95;100789.51;110734;1258;19878;-56
2022/07/27 05:36:37;;;;;;;;;6.00;6.00;;;;;21.26;53.07;100790.48;110706;1257;20280;-59
2022/07/27 05:39:05;;;;;;;;;6.00;6.00;;;;;21.28;53.08;100789.01;110645;1258;19230;-62
2022/07/27 05:41:32;;;;;;;;;8.00;8.00;;;;;21.36;52.77;100787.55;110602;1257;19701;-55
2022/07/27 05:44:00;;;;;;;;;9.00;6.00;;;;;21.27;52.91;100785.73;110605;1257;20812;-59
2022/07/27 05:46:27;;;;;;;;;7.33;6.00;;;;;21.29;52.94;100784.19;110691;1258;19671;-57
2022/07/27 05:48:54;;;;;;;;;8.00;6.00;;;;;21.33;52.89;100789.23;110677;1257;20255;-57
2022/07/27 05:51:22;;;;;;;;;13.00;13.00;;;;;21.37;52.77;100792.59;110569;1258;20310;-55
2022/07/27 05:53:49;;;;;;;;;16.00;13.00;;;;;21.36;52.66;100797.35;110349;1260;23706;-59
2022/07/27 05:56:16;;;;;;;;;13.67;13.67;;;;;21.39;52.38;100797.27;110411;1260;23318;-60
2022/07/27 05:58:44;;;;;;;;;10.00;10.00;;;;;21.39;52.37;100799.25;110370;1260;20364;-60
2022/07/27 06:01:11;;;;;;;;;16.00;13.00;;;;;21.34;52.22;100800.17;110368;1258;19459;-59
2022/07/27 06:03:39;;;;;;;;;25.00;21.00;;;;;21.30;52.29;100803.28;110497;1257;19621;-58
2022/07/27 06:09:06;;;;;;;;;16.00;16.00;;;;;21.82;51.48;100801.62;110069;1264;20405;-58
2022/07/27 06:11:34;;;;;;;;;18.00;15.33;;;;;22.21;50.74;100808.75;110141;1264;20199;-59
2022/07/27 06:14:01;;;;;;;;;18.67;15.67;;;;;22.47;50.02;100814.38;110197;1263;20180;-55
2022/07/27 06:16:28;;;;;;;;;17.00;15.00;;;;;22.64;49.86;100816.11;110095;1263;19737;-59
2022/07/27 06:18:56;;;;;;;;;17.33;15.00;;;;;22.77;49.55;100819.58;110013;1263;19625;-62
2022/07/27 06:21:25;;;;;;;;;18.00;18.00;;;;;22.87;49.29;100813.23;110102;1263;23064;-61
2022/07/27 06:23:52;;;;;;;;;13.67;12.33;;;;;22.96;49.06;100811.77;110181;1263;19402;-60
2022/07/27 06:26:20;;;;;;;;;15.33;13.33;;;;;23.02;49.10;100811.67;110241;1263;22460;-58
2022/07/27 06:28:47;;;;;;;;;13.33;11.00;;;;;23.06;49.19;100818.03;110125;1263;22324;-59
2022/07/27 06:31:15;;;;;;;;;12.67;12.00;;;;;23.09;49.06;100816.77;110152;1263;19562;-58
2022/07/27 06:33:42;;;;;;;;;9.67;8.33;;;;;23.10;48.95;100812.03;110080;1263;20014;-60
2022/07/27 06:36:09;;;;;;;;;10.00;10.00;;;;;23.12;49.09;100811.63;110128;1263;20522;-59
2022/07/27 06:38:37;;;;;;;;;9.33;9.00;;;;;23.14;48.82;100815.13;110255;1263;22954;-59
2022/07/27 06:41:04;;;;;;;;;9.00;8.33;;;;;23.27;48.96;100815.85;110523;1257;22627;-63
2022/07/27 06:43:32;;;;;;;;;9.50;9.00;;;;;23.35;48.85;100813.73;110756;1258;21740;-59
2022/07/27 06:45:59;;;;;;;;;9.00;9.00;;;;;23.42;48.75;100817.23;110778;1258;19618;-61
2022/07/27 06:48:27;;;;;;;;;6.67;6.67;;;;;23.46;48.47;100819.63;110771;1258;19695;-59
2022/07/27 06:50:54;;;;;;;;;10.33;8.33;;;;;23.48;48.67;100820.65;110770;1258;21649;-60
2022/07/27 06:53:21;;;;;;;;;7.33;6.67;;;;;23.50;48.64;100820.15;110758;1258;19294;-60
2022/07/27 06:55:49;;;;;;;;;11.33;7.67;;;;;23.35;48.52;100821.39;110721;1257;19629;-61
2022/07/27 06:58:16;;;;;;;;;7.00;7.00;;;;;22.86;49.15;100820.35;110502;1258;23072;-60
2022/07/27 07:00:43;;;;;;;;;6.33;6.00;;;;;22.56;49.66;100822.89;110722;1258;19349;-60
2022/07/27 07:03:11;;;;;;;;;9.00;9.00;;;;;22.64;49.47;100819.73;110714;1257;21584;-61
2022/07/27 07:05:38;;;;;;;;;6.00;5.00;;;;;22.94;49.48;100818.24;110761;1257;20318;-61
2022/07/27 07:08:10;;;;;;;;;9.00;7.67;;;;;23.21;49.11;100816.42;110704;1258;19422;-61
2022/07/27 07:10:37;;;;;;;;;7.00;6.00;;;;;23.41;48.89;100814.05;110717;1258;23347;-62
2022/07/27 07:13:05;;;;;;;;;6.33;6.33;;;;;23.55;48.47;100814.34;110761;1258;21229;-59
2022/07/27 07:15:32;;;;;;;;;10.33;8.00;;;;;23.64;48.53;100816.37;110579;1258;19293;-59
2022/07/27 07:18:01;;;;;;;;;7.00;6.00;;;;;23.73;48.52;100815.61;110780;1258;19581;-60
2022/07/27 07:20:29;;;;;;;;;6.00;6.00;;;;;23.81;48.36;100814.09;110820;1257;23292;-59
2022/07/27 07:22:56;;;;;;;;;6.33;6.33;;;;;23.88;48.28;100811.59;110749;1257;24025;-61
2022/07/27 07:25:23;;;;;;;;;5.00;5.00;;;;;23.91;47.94;100813.70;110742;1258;19486;-60
2022/07/27 07:27:51;;;;;;;;;10.00;7.67;;;;;23.91;47.50;100818.29;110729;1257;21455;-60
2022/07/27 07:30:18;;;;;;;;;9.67;9.67;;;;;23.69;47.52;100821.77;110731;1258;19496;-61
2022/07/27 07:32:46;;;;;;;;;8.00;7.00;;;;;23.48;47.85;100825.89;110737;1257;22558;-62
2022/07/27 07:35:13;;;;;;;;;8.00;7.00;;;;;23.38;47.70;100824.66;110777;1258;20569;-60
2022/07/27 07:37:41;;;;;;;;;7.33;6.67;;;;;23.22;47.60;100824.05;110703;1258;19612;-60
2022/07/27 07:40:09;;;;;;;;;7.00;7.00;;;;;23.30;47.47;100823.13;110743;1258;19441;-61
2022/07/27 07:42:36;;;;;;;;;6.00;5.67;;;;;23.58;47.53;100824.15;110514;1258;303440;-60
2022/07/27 07:45:04;;;;;;;;;7.00;6.00;;;;;23.79;47.15;100824.90;110739;1257;19189;-62
2022/07/27 07:47:32;;;;;;;;;5.33;5.33;;;;;23.77;46.48;100828.66;110754;1258;19659;-61
2022/07/27 07:49:59;;;;;;;;;3.00;3.00;;;;;23.21;46.31;100829.12;110697;1258;20295;-60
2022/07/27 07:52:26;;;;;;;;;3.00;2.67;;;;;22.82;46.24;100828.91;110750;1258;19188;-61
2022/07/27 07:54:54;;;;;;;;;5.00;3.00;;;;;22.71;46.62;100835.02;110733;1258;19395;-61
2022/07/27 07:57:21;;;;;;;;;3.00;3.00;;;;;22.81;46.32;100833.68;110716;1258;20382;-60
2022/07/27 07:59:49;;;;;;;;;5.00;5.00;;;;;22.81;45.73;100838.23;110753;1258;19402;-56
2022/07/27 08:02:16;;;;;;;;;3.00;3.00;;;;;22.78;45.63;100837.21;110752;1258;23056;-62
2022/07/27 08:04:44;;;;;;;;;5.00;3.00;;;;;22.55;45.48;100836.33;110755;1258;20690;-61
2022/07/27 08:07:11;;;;;;;;;3.00;3.00;;;;;22.63;45.60;100838.20;110708;1258;19372;-61
2022/07/27 08:09:38;;;;;;;;;3.00;3.00;;;;;22.83;45.67;100834.55;110768;1258;23161;-61
2022/07/27 08:12:06;;;;;;;;;3.00;3.00;;;;;22.83;45.44;100836.73;110686;1258;22620;-60
2022/07/27 08:14:33;;;;;;;;;5.00;5.00;;;;;22.64;45.40;100846.55;110721;1258;23573;-60
2022/07/27 08:17:01;;;;;;;;;5.00;5.00;;;;;22.51;45.42;100846.23;110705;1258;20256;-61
2022/07/27 08:19:28;;;;;;;;;5.00;5.00;;;;;22.44;45.50;100847.35;110669;1258;20675;-58
2022/07/27 08:21:56;;;;;;;;;6.00;6.00;;;;;22.41;45.62;100850.34;110665;1257;19138;-61
2022/07/27 08:24:23;;;;;;;;;5.67;5.67;;;;;22.53;45.69;100847.16;110747;1258;20883;-63
2022/07/27 08:26:50;;;;;;;;;7.00;6.33;;;;;22.63;45.57;100839.52;110719;1258;20273;-59
2022/07/27 08:29:18;;;;;;;;;6.00;6.00;;;;;22.66;45.43;100841.56;110736;1258;19296;-62
2022/07/27 08:31:45;;;;;;;;;6.00;5.00;;;;;22.69;45.41;100843.14;110759;1258;19506;-64
2022/07/27 08:34:13;;;;;;;;;7.00;7.00;;;;;22.85;45.21;100839.42;110799;1257;20268;-62
2022/07/27 08:36:40;;;;;;;;;8.33;7.00;;;;;22.86;45.28;100843.64;110474;1260;19293;-62
2022/07/27 08:39:08;;;;;;;;;9.33;7.67;;;;;22.75;45.10;100846.46;110787;1258;20823;-61
2022/07/27 08:41:35;;;;;;;;;7.00;6.00;;;;;22.68;44.82;100843.07;110857;1258;22903;-61
2022/07/27 08:44:03;;;;;;;;;10.00;10.00;;;;;22.53;44.91;100838.31;110721;1258;19290;-61
2022/07/27 08:46:31;;;;;;;;;6.00;6.00;;;;;22.44;44.98;100838.71;110760;1258;23885;-59
2022/07/27 08:48:59;;;;;;;;;7.00;6.00;;;;;22.27;45.47;100843.17;110755;1258;22948;-62
2022/07/27 08:51:26;;;;;;;;;6.00;6.00;;;;;22.32;45.58;100844.44;110757;1258;19171;-60
2022/07/27 08:53:54;;;;;;;;;6.00;5.00;;;;;22.45;45.58;100847.17;110779;1258;19497;-60
2022/07/27 08:56:21;;;;;;;;;6.00;5.00;;;;;22.51;45.65;100846.77;110800;1258;20552;-60
2022/07/27 08:58:48;;;;;;;;;5.00;5.00;;;;;22.58;45.70;100842.64;110772;1258;19402;-58
2022/07/27 09:01:16;;;;;;;;;5.33;5.00;;;;;22.66;45.62;100847.03;110781;1258;19451;-61
2022/07/27 09:03:43;;;;;;;;;8.00;8.00;;;;;22.65;45.85;100847.14;110743;1257;21046;-62
2022/07/27 09:06:11;;;;;;;;;10.00;9.67;;;;;22.75;45.44;100847.02;110713;1258;19171;-59
2022/07/27 09:08:40;;;;;;;;;9.00;7.00;;;;;22.80;45.32;100837.12;110748;1257;23605;-61
2022/07/27 09:11:08;;;;;;;;;7.67;6.33;;;;;22.97;45.27;100836.84;110692;1258;23488;-62
2022/07/27 09:13:35;;;;;;;;;10.00;7.00;;;;;23.14;45.03;100835.75;110608;1258;19243;-60
2022/07/27 09:16:03;;;;;;;;;9.00;7.00;;;;;23.21;44.94;100839.34;110658;1258;19882;-61
2022/07/27 09:18:32;;;;;;;;;9.00;9.00;;;;;22.90;44.70;100838.95;110716;1258;20777;-59
2022/07/27 09:20:59;;;;;;;;;7.67;7.00;;;;;22.74;44.61;100840.27;110442;1261;19232;-58
2022/07/27 09:23:27;;;;;;;;;9.00;7.67;;;;;22.89;44.86;100832.86;110779;1257;19454;-60
2022/07/27 09:25:54;;;;;;;;;8.33;7.00;;;;;23.10;44.63;100832.89;110717;1258;20317;-59
2022/07/27 09:28:22;;;;;;;;;7.00;7.00;;;;;23.22;44.62;100836.88;110753;1258;20898;-58
2022/07/27 09:30:49;;;;;;;;;10.00;8.33;;;;;23.24;44.55;100836.20;110735;1257;20963;-60
2022/07/27 09:33:16;;;;;;;;;7.00;7.00;;;;;23.34;44.63;100834.11;110498;1258;20265;-61
2022/07/27 09:35:45;;;;;;;;;8.00;8.00;;;;;23.44;44.43;100840.58;110750;1258;19129;-61
2022/07/27 09:38:12;;;;;;;;;6.50;6.50;;;;;23.19;44.30;100840.30;110707;1258;24559;-61
2022/07/27 09:40:40;;;;;;;;;10.33;10.00;;;;;22.97;43.94;100841.89;110584;1258;21046;-61
2022/07/27 09:43:07;;;;;;;;;9.50;9.50;;;;;22.71;44.01;100843.49;110474;1259;19273;-61
2022/07/27 09:45:34;;;;;;;;;10.00;9.00;;;;;22.74;43.95;100840.19;110613;1258;19733;-62
2022/07/27 09:48:02;;;;;;;;;6.00;6.00;;;;;22.90;43.30;100834.64;110629;1258;20281;-60
2022/07/27 09:50:29;;;;;;;;;9.00;7.00;;;;;23.13;42.91;100831.04;110602;1259;19221;-58
2022/07/27 09:52:57;;;;;;;;;9.33;9.00;;;;;23.21;42.65;100824.61;110563;1258;19510;-60
2022/07/27 09:55:24;;;;;;;;;9.00;7.00;;;;;23.30;42.59;100823.09;110441;1259;20190;-60
2022/07/27 09:57:52;;;;;;;;;9.67;9.67;;;;;23.36;42.43;100822.29;110590;1258;19227;-61
2022/07/27 10:00:19;;;;;;;;;10.33;9.00;;;;;23.23;42.35;100820.89;110573;1258;19518;-61
2022/07/27 10:02:47;;;;;;;;;7.00;7.00;;;;;23.22;42.18;100812.27;110652;1258;20648;-60
2022/07/27 10:05:16;;;;;;;;;9.00;7.00;;;;;23.15;41.82;100816.73;110726;1258;19352;-62
2022/07/27 10:07:44;;;;;;;;;9.00;9.00;;;;;23.21;41.74;100825.98;110810;1258;23617;-59
2022/07/27 10:10:11;;;;;;;;;15.33;14.33;;;;;23.27;41.77;100829.08;110663;1258;20404;-62
2022/07/27 10:12:39;;;;;;;;;10.00;9.50;;;;;23.25;41.95;100827.30;110775;1258;19345;-61
2022/07/27 10:15:06;;;;;;;;;6.67;6.67;;;;;23.15;42.24;100823.59;110733;1258;23681;-57
2022/07/27 10:17:34;;;;;;;;;10.00;9.00;;;;;23.10;42.43;100830.48;110698;1258;20369;-61
2022/07/27 10:20:04;;;;;;;;;9.00;7.00;;;;;23.18;42.55;100836.61;110652;1258;19694;-62
2022/07/27 10:22:31;;;;;;;;;6.50;6.50;;;;;23.25;42.89;100830.48;110757;1258;19623;-61
2022/07/27 10:24:59;;;;;;;;;6.00;5.67;;;;;23.34;43.15;100833.66;110692;1258;20303;-64
2022/07/27 10:27:26;;;;;;;;;6.00;6.00;;;;;23.25;42.65;100830.10;110727;1257;19270;-62
2022/07/27 10:29:54;;;;;;;;;20.67;20.00;;;;;23.20;42.72;100832.11;110773;1258;19913;-61
2022/07/27 10:32:22;;;;;;;;;70.67;55.67;;;;;23.27;42.94;100832.44;110774;1258;20356;-63
2022/07/27 10:34:49;;;;;;;;;194.33;166.67;;;;;23.42;42.67;100833.73;110726;1258;23024;-62
2022/07/27 10:37:17;;;;;;;;;56.67;46.33;;;;;23.59;42.54;100824.20;110718;1258;19675;-60
2022/07/27 10:39:44;;;;;;;;;30.00;25.00;;;;;23.48;41.64;100827.69;110785;1258;22778;-62
2022/07/27 10:42:12;;;;;;;;;18.67;16.00;;;;;23.37;41.59;100828.98;110743;1258;19299;-62
2022/07/27 10:44:39;;;;;;;;;35.00;29.00;;;;;23.30;41.57;100828.23;110790;1258;19609;-61
2022/07/27 10:47:07;;;;;;;;;25.00;23.67;;;;;23.19;41.58;100827.92;110579;1258;20553;-60
2022/07/27 10:49:34;;;;;;;;;26.33;24.00;;;;;23.37;42.31;100825.70;110658;1258;23488;-61
2022/07/27 10:52:01;;;;;;;;;20.50;20.00;;;;;23.67;42.57;100821.18;110638;1258;19588;-62
2022/07/27 10:54:31;;;;;;;;;21.33;20.33;;;;;23.91;42.33;100818.27;110716;1257;20242;-57
2022/07/27 10:56:59;;;;;;;;;20.67;20.00;;;;;24.06;42.24;100812.83;110519;1258;19360;-61
2022/07/27 10:59:26;;;;;;;;;20.00;20.00;;;;;24.14;42.02;100802.69;110701;1258;24423;-61
2022/07/27 11:01:53;;;;;;;;;21.50;18.50;;;;;24.20;41.90;100801.16;110685;1258;20662;-61
2022/07/27 11:04:21;;;;;;;;;16.33;15.00;;;;;24.25;41.87;100809.56;110459;1259;19410;-63
2022/07/27 11:06:48;;;;;;;;;15.33;14.00;;;;;24.28;41.88;100799.64;110506;1258;19500;-60
2022/07/27 11:09:16;;;;;;;;;14.33;13.00;;;;;24.31;41.79;100798.23;110388;1259;24178;-64
2022/07/27 11:11:43;;;;;;;;;15.00;13.00;;;;;24.33;41.68;100796.99;110431;1259;19211;-61
2022/07/27 11:14:11;;;;;;;;;11.50;11.50;;;;;24.35;41.42;100799.67;110479;1259;19550;-60
2022/07/27 11:16:38;;;;;;;;;15.00;13.50;;;;;24.35;41.25;100798.38;110569;1258;20474;-62
2022/07/27 11:19:06;;;;;;;;;10.50;10.50;;;;;24.36;41.22;100799.14;110408;1258;24449;-61
2022/07/27 11:21:34;;;;;;;;;12.50;11.50;;;;;24.38;41.15;100802.41;110305;1258;23889;-60